createdAt,value
2022-10-17T00:00:56.293Z,7.05
2022-10-17T00:03:23.089Z,7.80
2022-10-17T00:05:49.949Z,6.97
2022-10-17T00:08:18.992Z,7.13
2022-10-17T00:10:54.791Z,7.18
2022-10-17T00:13:21.598Z,7.55
2022-10-17T00:15:48.420Z,7.70
2022-10-17T00:18:15.189Z,7.45
2022-10-17T00:20:42.117Z,7.47
2022-10-17T00:23:09.128Z,7.57
2022-10-17T00:25:37.000Z,7.68
2022-10-17T00:28:04.106Z,7.95
2022-10-17T00:30:32.792Z,7.88
2022-10-17T00:32:59.571Z,7.03
2022-10-17T00:35:26.412Z,7.18
2022-10-17T00:37:53.110Z,7.72
2022-10-17T00:40:19.964Z,7.35
2022-10-17T00:42:47.902Z,7.30
2022-10-17T00:45:19.628Z,8.20
2022-10-17T00:48:04.277Z,7.75
2022-10-17T00:53:02.799Z,7.65
2022-10-17T00:55:34.587Z,7.13
2022-10-17T00:58:05.220Z,8.10
2022-10-17T01:00:32.092Z,7.93
2022-10-17T01:02:59.059Z,8.05
2022-10-17T01:05:26.383Z,7.78
2022-10-17T01:07:54.872Z,7.70
2022-10-17T01:10:27.528Z,7.88
2022-10-17T01:13:42.537Z,8.10
2022-10-17T01:16:39.499Z,8.07
2022-10-17T01:19:49.341Z,8.18
2022-10-17T01:22:36.046Z,8.25
2022-10-17T01:25:33.700Z,8.10
2022-10-17T01:28:36.944Z,7.95
2022-10-17T01:31:15.391Z,8.60
2022-10-17T01:33:56.205Z,8.15
2022-10-17T01:36:39.469Z,8.60
2022-10-17T01:39:11.830Z,8.75
2022-10-17T01:41:51.536Z,8.60
2022-10-17T01:44:25.093Z,7.70
2022-10-17T01:47:02.523Z,8.35
2022-10-17T01:49:34.491Z,8.80
2022-10-17T01:52:10.842Z,8.60
2022-10-17T01:54:48.159Z,7.80
2022-10-17T01:57:35.333Z,9.07
2022-10-17T02:00:09.588Z,9.40
2022-10-17T02:02:43.652Z,8.73
2022-10-17T02:05:11.115Z,8.48
2022-10-17T02:07:37.907Z,8.68
2022-10-17T02:10:19.712Z,8.55
2022-10-17T02:13:17.221Z,8.50
2022-10-17T02:16:17.870Z,8.40
2022-10-17T02:19:20.101Z,7.55
2022-10-17T02:22:10.937Z,8.80
2022-10-17T02:25:02.236Z,8.65
2022-10-17T02:27:53.756Z,7.75
2022-10-17T02:30:41.911Z,7.75
2022-10-17T02:33:31.833Z,9.13
2022-10-17T02:36:08.859Z,6.90
2022-10-17T02:38:36.032Z,8.45
2022-10-17T02:41:09.723Z,8.60
2022-10-17T02:43:38.948Z,8.77
2022-10-17T02:46:08.154Z,9.75
2022-10-17T02:48:44.153Z,8.82
2022-10-17T02:51:36.839Z,8.30
2022-10-17T02:54:32.804Z,7.70
2022-10-17T02:57:06.376Z,8.63
2022-10-17T02:59:35.931Z,8.02
2022-10-17T03:02:06.146Z,8.15
2022-10-17T03:04:34.635Z,8.05
2022-10-17T03:07:01.432Z,8.30
2022-10-17T03:09:28.203Z,8.30
2022-10-17T03:11:55.306Z,8.15
2022-10-17T03:14:22.059Z,8.52
2022-10-17T03:16:48.849Z,8.50
2022-10-17T03:19:17.648Z,8.60
2022-10-17T03:21:44.530Z,8.95
2022-10-17T03:24:12.313Z,8.60
2022-10-17T03:26:39.337Z,8.35
2022-10-17T03:29:07.414Z,9.32
2022-10-17T03:31:36.586Z,8.65
2022-10-17T03:34:05.357Z,9.13
2022-10-17T03:36:32.373Z,9.18
2022-10-17T03:38:59.260Z,9.40
2022-10-17T03:41:27.593Z,8.73
2022-10-17T03:43:54.610Z,8.45
2022-10-17T03:46:23.597Z,8.90
2022-10-17T03:48:50.921Z,9.50
2022-10-17T03:51:17.906Z,9.32
2022-10-17T03:53:49.867Z,8.73
2022-10-17T03:56:21.644Z,9.60
2022-10-17T03:58:57.778Z,9.00
2022-10-17T04:01:25.180Z,8.80
2022-10-17T04:03:54.909Z,9.45
2022-10-17T04:06:22.794Z,9.65
2022-10-17T04:08:50.310Z,8.38
2022-10-17T04:11:37.355Z,9.57
2022-10-17T04:14:05.122Z,8.63
2022-10-17T04:16:32.141Z,8.82
2022-10-17T04:19:14.186Z,8.20
2022-10-17T04:21:44.858Z,8.57
2022-10-17T04:24:12.357Z,8.48
2022-10-17T04:26:51.015Z,8.35
2022-10-17T04:29:19.068Z,8.13
2022-10-17T04:31:49.890Z,8.32
2022-10-17T04:34:25.227Z,7.30
2022-10-17T04:36:53.050Z,7.38
2022-10-17T04:39:20.140Z,7.63
2022-10-17T04:41:47.886Z,7.80
2022-10-17T04:44:14.870Z,7.45
2022-10-17T04:46:47.665Z,6.88
2022-10-17T04:49:14.576Z,6.93
2022-10-17T04:51:45.942Z,6.70
2022-10-17T04:54:23.470Z,6.65
2022-10-17T04:56:59.108Z,6.80
2022-10-17T04:59:26.316Z,6.90
2022-10-17T05:02:04.146Z,6.82
2022-10-17T05:04:32.209Z,7.05
2022-10-17T05:06:59.260Z,6.32
2022-10-17T05:09:40.376Z,6.85
2022-10-17T05:12:09.571Z,7.03
2022-10-17T05:14:39.792Z,6.75
2022-10-17T05:17:06.566Z,7.47
2022-10-17T05:19:33.398Z,7.20
2022-10-17T05:22:00.396Z,6.30
2022-10-17T05:24:27.220Z,7.13
2022-10-17T05:26:54.027Z,7.90
2022-10-17T05:29:20.977Z,6.97
2022-10-17T05:31:53.102Z,7.28
2022-10-17T05:34:20.383Z,7.13
2022-10-17T05:36:47.302Z,7.15
2022-10-17T05:39:19.659Z,7.22
2022-10-17T05:41:48.043Z,6.72
2022-10-17T05:44:15.015Z,6.60
2022-10-17T05:46:45.368Z,6.82
2022-10-17T05:49:19.667Z,7.25
2022-10-17T05:51:59.031Z,7.30
2022-10-17T05:54:26.890Z,6.97
2022-10-17T05:56:55.449Z,6.57
2022-10-17T05:59:26.964Z,7.05
2022-10-17T06:01:58.209Z,7.47
2022-10-17T06:04:27.817Z,6.88
2022-10-17T06:06:56.298Z,7.20
2022-10-17T06:09:24.388Z,6.97
2022-10-17T06:11:53.815Z,7.30
2022-10-17T06:14:20.913Z,6.90
2022-10-17T06:16:51.454Z,7.13
2022-10-17T06:19:18.377Z,7.68
2022-10-17T06:21:46.501Z,7.00
2022-10-17T06:24:15.539Z,7.47
2022-10-17T06:26:43.222Z,7.05
2022-10-17T06:29:13.411Z,7.05
2022-10-17T06:31:45.527Z,6.82
2022-10-17T06:34:12.321Z,7.05
2022-10-17T06:36:40.450Z,6.55
2022-10-17T06:39:08.530Z,6.45
2022-10-17T06:41:47.318Z,6.68
2022-10-17T06:44:18.285Z,7.03
2022-10-17T06:47:03.886Z,7.22
2022-10-17T06:49:34.203Z,6.50
2022-10-17T06:52:24.844Z,6.38
2022-10-17T06:55:11.511Z,6.50
2022-10-17T06:57:46.400Z,6.43
2022-10-17T07:00:31.703Z,6.28
2022-10-17T07:02:58.596Z,7.32
2022-10-17T07:05:25.380Z,6.63
2022-10-17T07:07:52.333Z,7.50
2022-10-17T07:10:19.213Z,6.60
2022-10-17T07:12:46.224Z,6.03
2022-10-17T07:15:13.452Z,7.07
2022-10-17T07:17:40.245Z,7.22
2022-10-17T07:20:07.975Z,7.28
2022-10-17T07:22:37.086Z,6.53
2022-10-17T07:25:05.150Z,6.00
2022-10-17T07:27:42.803Z,7.18
2022-10-17T07:30:10.838Z,6.10
2022-10-17T07:32:54.610Z,6.47
2022-10-17T07:35:22.154Z,6.05
2022-10-17T07:37:49.058Z,5.95
2022-10-17T07:40:18.969Z,6.47
2022-10-17T07:42:45.795Z,6.15
2022-10-17T07:45:13.545Z,6.13
2022-10-17T07:47:42.035Z,6.38
2022-10-17T07:50:10.219Z,5.53
2022-10-17T07:52:37.398Z,5.40
2022-10-17T07:55:04.751Z,6.65
2022-10-17T07:57:31.563Z,6.13
2022-10-17T07:59:58.339Z,4.97
2022-10-17T08:02:28.095Z,5.28
2022-10-17T08:04:55.136Z,5.18
2022-10-17T08:07:26.838Z,4.68
2022-10-17T08:09:55.276Z,4.57
2022-10-17T08:12:22.250Z,4.45
2022-10-17T08:14:49.564Z,5.15
2022-10-17T08:17:16.585Z,4.75
2022-10-17T08:19:43.361Z,4.68
2022-10-17T08:22:10.213Z,6.22
2022-10-17T08:24:36.973Z,5.65
2022-10-17T08:27:08.555Z,5.15
2022-10-17T08:29:35.306Z,5.20
2022-10-17T08:32:03.715Z,4.85
2022-10-17T08:34:31.275Z,4.60
2022-10-17T08:36:58.021Z,4.60
2022-10-17T08:39:24.794Z,5.75
2022-10-17T08:42:08.377Z,5.28
2022-10-17T08:44:59.818Z,4.05
2022-10-17T08:47:36.228Z,5.10
2022-10-17T08:50:11.726Z,5.25
2022-10-17T08:53:10.880Z,5.47
2022-10-17T08:55:47.209Z,6.43
2022-10-17T08:58:28.172Z,5.25
2022-10-17T09:01:26.560Z,5.35
2022-10-17T09:04:10.992Z,5.90
2022-10-17T09:06:49.282Z,6.60
2022-10-17T09:12:05.690Z,7.47
2022-10-17T09:14:53.282Z,7.20
2022-10-17T09:17:45.032Z,7.72
2022-10-17T09:20:24.465Z,7.32
2022-10-17T09:23:03.962Z,7.03
2022-10-17T09:25:44.110Z,6.97
2022-10-17T09:28:38.316Z,4.10
2022-10-17T09:31:22.901Z,6.97
2022-10-17T09:36:26.063Z,6.18
2022-10-17T09:38:57.006Z,6.13
2022-10-17T09:41:49.999Z,7.35
2022-10-17T09:44:22.767Z,7.65
2022-10-17T09:47:27.445Z,8.10
2022-10-17T09:49:54.889Z,8.00
2022-10-17T09:52:35.189Z,7.68
2022-10-17T09:55:07.157Z,7.63
2022-10-17T09:58:00.470Z,8.10
2022-10-17T10:00:41.253Z,7.43
2022-10-17T10:03:17.110Z,8.25
2022-10-17T10:06:07.015Z,7.95
2022-10-17T10:08:50.342Z,8.32
2022-10-17T10:11:20.041Z,8.80
2022-10-17T10:13:49.604Z,8.75
2022-10-17T10:16:32.204Z,8.68
2022-10-17T10:18:59.168Z,10.15
2022-10-17T10:21:27.749Z,9.20
2022-10-17T10:24:09.724Z,9.75
2022-10-17T10:26:48.812Z,9.63
2022-10-17T10:29:56.689Z,9.60
2022-10-17T10:32:26.863Z,8.70
2022-10-17T10:35:00.377Z,9.43
2022-10-17T10:37:39.875Z,8.65
2022-10-17T10:40:20.104Z,9.07
2022-10-17T10:42:51.331Z,8.65
2022-10-17T10:45:48.453Z,8.88
2022-10-17T10:48:25.818Z,8.95
2022-10-17T10:51:07.969Z,9.10
2022-10-17T10:53:46.115Z,9.45
2022-10-17T10:59:06.665Z,8.77
2022-10-17T11:01:53.222Z,9.20
2022-10-17T11:04:26.771Z,7.85
2022-10-17T11:07:04.648Z,8.73
2022-10-17T11:09:54.561Z,7.25
2022-10-17T11:12:31.502Z,7.78
2022-10-17T11:15:31.296Z,6.72
2022-10-17T11:18:05.160Z,7.70
2022-10-17T11:20:58.939Z,8.00
2022-10-17T11:23:44.739Z,7.40
2022-10-17T11:26:27.002Z,7.75
2022-10-17T11:28:56.447Z,7.55
2022-10-17T11:31:31.030Z,7.45
2022-10-17T11:34:06.982Z,7.28
2022-10-17T11:36:39.842Z,7.93
2022-10-17T11:39:56.511Z,7.97
2022-10-17T11:42:44.111Z,7.55
2022-10-17T11:45:21.662Z,7.40
2022-10-17T11:47:57.585Z,7.95
2022-10-17T11:53:31.345Z,7.95
2022-10-17T11:56:01.582Z,8.02
2022-10-17T11:58:55.441Z,8.43
2022-10-17T12:01:52.560Z,8.20
2022-10-17T12:04:52.989Z,8.60
2022-10-17T12:10:39.741Z,9.05
2022-10-17T12:13:51.639Z,8.88
2022-10-17T12:16:21.308Z,8.93
2022-10-17T12:19:11.164Z,8.20
2022-10-17T12:22:00.336Z,8.82
2022-10-17T12:24:44.006Z,9.32
2022-10-17T12:27:50.175Z,9.73
2022-10-17T12:30:24.063Z,9.02
2022-10-17T12:33:22.381Z,9.50
2022-10-17T12:35:51.775Z,9.93
2022-10-17T12:38:18.447Z,8.57
2022-10-17T12:40:49.052Z,8.07
2022-10-17T12:43:15.917Z,8.98
2022-10-17T12:45:54.093Z,8.90
2022-10-17T12:48:39.462Z,9.43
2022-10-17T12:51:40.486Z,9.48
2022-10-17T12:54:16.645Z,9.52
2022-10-17T12:56:49.511Z,9.80
2022-10-17T12:59:24.166Z,10.02
2022-10-17T13:01:58.999Z,10.43
2022-10-17T13:04:29.125Z,9.55
2022-10-17T13:07:00.668Z,9.70
2022-10-17T13:09:31.690Z,9.93
2022-10-17T13:12:04.870Z,10.15
2022-10-17T13:14:33.989Z,9.73
2022-10-17T13:17:04.098Z,9.93
2022-10-17T13:19:42.032Z,9.05
2022-10-17T13:22:15.459Z,10.38
2022-10-17T13:24:42.361Z,9.77
2022-10-17T13:27:32.044Z,10.57
2022-10-17T13:30:02.998Z,11.27
2022-10-17T13:32:39.645Z,11.55
2022-10-17T13:35:17.095Z,10.52
2022-10-17T13:37:51.602Z,11.07
2022-10-17T13:40:49.559Z,11.93
2022-10-17T13:43:24.198Z,10.05
2022-10-17T13:48:30.556Z,9.25
2022-10-17T13:51:07.878Z,7.65
2022-10-17T13:53:41.698Z,10.23
2022-10-17T13:56:28.451Z,9.80
2022-10-17T13:59:01.433Z,8.88
2022-10-17T14:01:30.197Z,11.52
2022-10-17T14:04:08.472Z,11.38
2022-10-17T14:06:46.282Z,8.65
2022-10-17T14:09:28.791Z,11.13
2022-10-17T14:12:12.840Z,11.85
2022-10-17T14:15:09.323Z,10.85
2022-10-17T14:17:38.471Z,10.85
2022-10-17T14:20:47.855Z,10.25
2022-10-17T14:23:21.488Z,7.53
2022-10-17T14:25:46.795Z,10.05
2022-10-17T14:28:14.784Z,11.05
2022-10-17T14:30:57.180Z,10.77
2022-10-17T14:33:31.898Z,11.35
2022-10-17T14:36:02.819Z,11.38
2022-10-17T14:38:30.469Z,9.75
2022-10-17T14:43:57.919Z,10.07
2022-10-17T14:46:25.812Z,10.23
2022-10-17T14:49:04.884Z,11.23
2022-10-17T14:51:40.226Z,11.43
2022-10-17T14:54:24.271Z,8.15
2022-10-17T14:56:53.715Z,10.55
2022-10-17T14:59:51.428Z,11.23
2022-10-17T15:02:12.126Z,10.48
2022-10-17T15:04:38.890Z,10.40
2022-10-17T15:07:05.854Z,10.55
2022-10-17T15:09:33.075Z,9.70
2022-10-17T15:12:02.712Z,11.20
2022-10-17T15:14:29.506Z,9.68
2022-10-17T15:16:56.251Z,9.93
2022-10-17T15:19:23.041Z,10.38
2022-10-17T15:21:49.785Z,9.75
2022-10-17T15:24:16.512Z,10.45
2022-10-17T15:26:44.983Z,10.75
2022-10-17T15:29:16.105Z,9.80
2022-10-17T15:31:43.079Z,11.60
2022-10-17T15:34:09.916Z,10.00
2022-10-17T15:36:42.678Z,10.50
2022-10-17T15:39:10.058Z,9.85
2022-10-17T15:41:36.835Z,10.52
2022-10-17T15:44:03.687Z,10.70
2022-10-17T15:46:35.359Z,10.45
2022-10-17T15:49:07.461Z,11.00
2022-10-17T15:51:34.491Z,11.00
2022-10-17T15:54:01.820Z,10.93
2022-10-17T15:56:36.306Z,11.68
2022-10-17T15:59:14.135Z,11.63
2022-10-17T16:01:42.240Z,11.68
2022-10-17T16:04:15.078Z,11.35
2022-10-17T16:06:42.965Z,12.00
2022-10-17T16:09:10.774Z,12.60
2022-10-17T16:11:44.383Z,12.45
2022-10-17T16:14:16.168Z,12.68
2022-10-17T16:16:43.360Z,11.88
2022-10-17T16:19:10.257Z,12.55
2022-10-17T16:21:40.665Z,12.43
2022-10-17T16:24:12.113Z,12.23
2022-10-17T16:26:39.917Z,12.57
2022-10-17T16:29:07.280Z,13.07
2022-10-17T16:31:37.842Z,12.55
2022-10-17T16:34:06.491Z,12.00
2022-10-17T16:36:33.291Z,13.55
2022-10-17T16:39:00.398Z,14.20
2022-10-17T16:41:31.136Z,14.00
2022-10-17T16:44:03.453Z,14.15
2022-10-17T16:46:32.337Z,13.48
2022-10-17T16:48:59.648Z,14.68
2022-10-17T16:51:26.616Z,14.55
2022-10-17T16:53:56.425Z,14.20
2022-10-17T16:56:25.068Z,14.30
2022-10-17T16:58:53.183Z,14.35
2022-10-17T17:01:23.817Z,14.77
2022-10-17T17:03:52.551Z,14.55
2022-10-17T17:06:27.433Z,14.45
2022-10-17T17:08:56.011Z,13.88
2022-10-17T17:11:26.081Z,14.60
2022-10-17T17:13:56.900Z,14.35
2022-10-17T17:16:27.157Z,15.57
2022-10-17T17:18:59.830Z,15.73
2022-10-17T17:21:27.878Z,15.48
2022-10-17T17:23:59.006Z,17.33
2022-10-17T17:26:29.833Z,16.40
2022-10-17T17:28:59.942Z,17.27
2022-10-17T17:31:30.588Z,16.77
2022-10-17T17:33:58.212Z,17.10
2022-10-17T17:36:32.777Z,15.73
2022-10-17T17:39:04.033Z,15.10
2022-10-17T17:41:31.506Z,16.80
2022-10-17T17:43:58.462Z,16.05
2022-10-17T17:46:25.983Z,15.30
2022-10-17T17:48:55.161Z,16.08
2022-10-17T17:51:28.378Z,16.05
2022-10-17T17:53:56.858Z,16.77
2022-10-17T17:56:28.046Z,16.08
2022-10-17T17:59:01.616Z,15.88
2022-10-17T18:01:32.364Z,15.13
2022-10-17T18:03:59.565Z,15.75
2022-10-17T18:06:27.800Z,15.60
2022-10-17T18:08:58.482Z,16.17
2022-10-17T18:11:27.403Z,15.55
2022-10-17T18:13:56.597Z,14.80
2022-10-17T18:16:25.000Z,14.60
2022-10-17T18:18:51.756Z,15.75
2022-10-17T18:21:19.176Z,16.45
2022-10-17T18:23:49.330Z,15.15
2022-10-17T18:26:16.508Z,14.82
2022-10-17T18:28:44.365Z,15.05
2022-10-17T18:31:21.936Z,16.08
2022-10-17T18:33:52.913Z,15.65
2022-10-17T18:36:20.964Z,15.90
2022-10-17T18:38:48.772Z,15.93
2022-10-17T18:41:19.139Z,14.82
2022-10-17T18:43:48.172Z,15.02
2022-10-17T18:46:29.285Z,16.17
2022-10-17T18:48:57.336Z,14.55
2022-10-17T18:51:26.330Z,16.25
2022-10-17T18:53:56.553Z,15.70
2022-10-17T18:56:24.684Z,15.60
2022-10-17T18:58:51.929Z,17.17
2022-10-17T19:01:22.678Z,16.65
2022-10-17T19:03:54.514Z,14.55
2022-10-17T19:06:25.393Z,17.30
2022-10-17T19:08:52.391Z,16.35
2022-10-17T19:11:24.077Z,17.77
2022-10-17T19:13:52.605Z,16.98
2022-10-17T19:16:26.780Z,17.73
2022-10-17T19:18:57.842Z,15.73
2022-10-17T19:21:25.643Z,16.50
2022-10-17T19:24:02.082Z,15.93
2022-10-17T19:26:35.011Z,16.60
2022-10-17T19:29:02.319Z,13.35
2022-10-17T19:31:31.741Z,16.42
2022-10-17T19:34:00.422Z,16.85
2022-10-17T19:36:33.371Z,16.95
2022-10-17T19:39:04.604Z,16.27
2022-10-17T19:41:31.918Z,16.15
2022-10-17T19:44:00.545Z,15.70
2022-10-17T19:46:29.743Z,17.20
2022-10-17T19:48:57.312Z,18.10
2022-10-17T19:51:25.383Z,15.68
2022-10-17T19:53:54.733Z,16.40
2022-10-17T19:56:24.029Z,17.23
2022-10-17T19:58:51.861Z,17.35
2022-10-17T20:01:26.016Z,16.63
2022-10-17T20:03:53.738Z,16.33
2022-10-17T20:06:21.897Z,15.32
2022-10-17T20:08:49.428Z,16.27
2022-10-17T20:11:23.446Z,15.77
2022-10-17T20:13:51.540Z,16.48
2022-10-17T20:16:25.421Z,16.05
2022-10-17T20:18:56.509Z,14.95
2022-10-17T20:21:32.940Z,17.23
2022-10-17T20:24:00.792Z,16.63
2022-10-17T20:26:38.603Z,15.55
2022-10-17T20:29:12.713Z,15.23
2022-10-17T20:31:42.990Z,14.98
2022-10-17T20:34:14.203Z,14.38
2022-10-17T20:36:41.151Z,14.23
2022-10-17T20:39:10.537Z,14.65
2022-10-17T20:41:37.290Z,14.98
2022-10-17T20:44:04.623Z,14.23
2022-10-17T20:46:44.782Z,13.93
2022-10-17T20:49:21.383Z,14.57
2022-10-17T20:51:48.125Z,13.27
2022-10-17T20:54:14.946Z,14.77
2022-10-17T20:56:41.810Z,14.45
2022-10-17T20:59:14.369Z,14.52
2022-10-17T21:01:41.324Z,14.05
2022-10-17T21:04:40.297Z,14.80
2022-10-17T21:06:55.471Z,13.52
2022-10-17T21:09:22.621Z,14.07
2022-10-17T21:11:55.516Z,13.57
2022-10-17T21:14:24.880Z,12.98
2022-10-17T21:16:52.388Z,14.30
2022-10-17T21:19:19.806Z,14.10
2022-10-17T21:21:46.813Z,14.40
2022-10-17T21:24:20.731Z,14.18
2022-10-17T21:26:55.238Z,14.02
2022-10-17T21:29:23.821Z,14.85
2022-10-17T21:31:51.404Z,14.50
2022-10-17T21:34:23.882Z,14.68
2022-10-17T21:36:51.958Z,13.65
2022-10-17T21:39:19.221Z,14.23
2022-10-17T21:41:45.977Z,13.77
2022-10-17T21:44:19.088Z,13.13
2022-10-17T21:46:47.097Z,13.65
2022-10-17T21:49:18.599Z,13.98
2022-10-17T21:51:52.811Z,14.70
2022-10-17T21:54:22.980Z,13.75
2022-10-17T21:56:51.000Z,14.50
2022-10-17T21:59:17.937Z,13.85
2022-10-17T22:01:45.980Z,13.88
2022-10-17T22:04:17.328Z,13.23
2022-10-17T22:06:46.867Z,12.85
2022-10-17T22:09:22.066Z,14.07
2022-10-17T22:11:52.975Z,13.98
2022-10-17T22:14:22.973Z,13.00
2022-10-17T22:16:50.993Z,12.77
2022-10-17T22:19:27.211Z,12.45
2022-10-17T22:21:54.861Z,13.50
2022-10-17T22:24:23.313Z,13.45
2022-10-17T22:26:50.408Z,12.90
2022-10-17T22:29:17.654Z,13.05
2022-10-17T22:31:44.558Z,12.82
2022-10-17T22:34:14.645Z,13.32
2022-10-17T22:36:42.361Z,12.50
2022-10-17T22:39:10.260Z,12.32
2022-10-17T22:41:37.057Z,12.35
2022-10-17T22:44:04.130Z,12.48
2022-10-17T22:46:30.977Z,12.68
2022-10-17T22:48:57.737Z,13.30
2022-10-17T22:53:56.557Z,12.88
2022-10-17T22:56:23.627Z,12.07
2022-10-17T22:58:51.185Z,12.60
2022-10-17T23:01:23.642Z,12.63
2022-10-17T23:03:52.532Z,12.35
2022-10-17T23:06:20.572Z,12.05
2022-10-17T23:08:47.728Z,12.32
2022-10-17T23:11:14.739Z,12.57
2022-10-17T23:13:41.783Z,12.27
2022-10-17T23:16:09.400Z,11.85
2022-10-17T23:18:38.207Z,12.70
2022-10-17T23:21:05.684Z,11.85
2022-10-17T23:23:32.590Z,11.90
2022-10-17T23:26:09.617Z,12.55
2022-10-17T23:28:37.019Z,11.65
2022-10-17T23:31:14.907Z,12.90
2022-10-17T23:33:44.816Z,12.35
2022-10-17T23:36:15.092Z,12.32
2022-10-17T23:38:44.400Z,12.45
2022-10-17T23:41:11.631Z,11.88
2022-10-17T23:43:38.517Z,12.52
2022-10-17T23:46:06.636Z,12.73
2022-10-17T23:48:33.748Z,12.43
2022-10-17T23:51:00.923Z,12.50
2022-10-17T23:53:27.734Z,12.45
2022-10-17T23:55:54.513Z,11.98
2022-10-17T23:58:21.421Z,12.50
